Time;durP1;ratioP1;P1;durP2;ratioP2;P2;SDS_P1;SDS_P2;PMS_P1;PMS_P2;Temp;Humidity;BMP_temperature;BMP_pressure;BME280_temperature;BME280_humidity;BME280_pressure;Samples;Min_cycle;Max_cycle;Signal;HPM_P1;HPM_P2
2022/11/03 00:01:41;;;;;;;7.18;1.80;;;10.50;99.90;;;;;;4992717;28;20409;-78
2022/11/03 00:04:12;;;;;;;13.63;2.42;;;10.60;99.90;;;;;;4976252;28;20406;-78
2022/11/03 00:06:38;;;;;;;8.82;2.47;;;10.60;99.90;;;;;;4992505;28;20129;-77
2022/11/03 00:09:06;;;;;;;11.40;2.35;;;10.60;99.90;;;;;;4993281;28;20048;-78
2022/11/03 00:11:33;;;;;;;6.88;2.10;;;10.60;99.90;;;;;;4976052;28;20050;-78
2022/11/03 00:14:00;;;;;;;9.55;2.17;;;10.60;99.90;;;;;;4992163;28;20049;-77
2022/11/03 00:16:25;;;;;;;12.05;2.83;;;10.60;99.90;;;;;;4993361;28;20038;-78
2022/11/03 00:18:52;;;;;;;10.20;1.88;;;10.60;99.90;;;;;;4976503;28;20045;-77
2022/11/03 00:21:17;;;;;;;11.35;2.72;;;10.60;99.90;;;;;;4991581;28;20041;-77
2022/11/03 00:23:44;;;;;;;12.38;2.45;;;10.60;99.90;;;;;;4992954;28;20038;-77
2022/11/03 00:26:17;;;;;;;12.30;2.60;;;10.60;99.90;;;;;;4992516;28;20127;-78
2022/11/03 00:28:44;;;;;;;;;;;10.60;99.90;;;;;;4976463;28;20317;-77
2022/11/03 00:31:12;;;;;;;9.90;2.30;;;10.70;99.90;;;;;;4992635;28;19967;-77
2022/11/03 00:33:38;;;;;;;10.43;2.25;;;10.60;99.90;;;;;;4993232;28;20049;-78
2022/11/03 00:36:05;;;;;;;13.73;2.33;;;10.60;99.90;;;;;;4993203;28;20042;-77
2022/11/03 00:38:31;;;;;;;10.80;2.20;;;10.60;99.90;;;;;;4989709;28;20041;-78
2022/11/03 00:40:59;;;;;;;6.45;2.40;;;10.50;99.90;;;;;;4988782;28;20042;-77
2022/11/03 00:43:26;;;;;;;12.25;2.47;;;10.50;99.90;;;;;;4992858;28;20520;-78
2022/11/03 00:45:52;;;;;;;15.55;2.22;;;10.60;99.90;;;;;;4975868;28;20077;-78
2022/11/03 00:48:33;;;;;;;7.18;1.98;;;10.50;99.90;;;;;;4976895;28;20062;-77
2022/11/03 00:51:12;;;;;;;10.35;2.47;;;10.50;99.90;;;;;;4992005;28;20042;-77
2022/11/03 00:53:40;;;;;;;11.07;2.42;;;10.50;99.90;;;;;;4993054;28;20038;-77
2022/11/03 00:56:09;;;;;;;11.43;2.20;;;10.50;99.90;;;;;;4992013;28;20206;-76
2022/11/03 00:58:34;;;;;;;12.10;2.05;;;10.50;99.90;;;;;;4994372;28;20050;-78
2022/11/03 01:01:12;;;;;;;14.02;2.50;;;10.50;99.90;;;;;;4979239;28;20038;-77
2022/11/03 01:03:39;;;;;;;9.32;2.10;;;10.50;99.90;;;;;;4990289;28;20129;-78
2022/11/03 01:08:50;;;;;;;11.15;2.13;;;10.40;99.90;;;;;;4996606;28;20458;-78
2022/11/03 01:14:04;;;;;;;12.40;2.72;;;10.40;99.90;;;;;;4996305;28;20467;-76
2022/11/03 01:16:30;;;;;;;8.50;2.10;;;10.40;99.90;;;;;;5008067;28;20121;-79
2022/11/03 01:18:56;;;;;;;10.07;2.30;;;10.40;99.90;;;;;;4993175;28;20096;-78
2022/11/03 01:21:22;;;;;;;10.68;2.20;;;10.40;99.90;;;;;;4995458;28;20121;-77
2022/11/03 01:23:48;;;;;;;9.85;2.95;;;10.40;99.90;;;;;;4999326;28;20565;-78
2022/11/03 01:26:14;;;;;;;9.25;2.13;;;10.40;99.90;;;;;;4978650;28;20095;-79
2022/11/03 01:28:42;;;;;;;12.05;2.47;;;10.40;99.90;;;;;;4995563;28;20407;-77
2022/11/03 01:31:14;;;;;;;9.82;2.58;;;10.40;99.90;;;;;;4994370;28;20091;-77
2022/11/03 01:33:40;;;;;;;10.20;2.65;;;10.40;99.90;;;;;;4995060;28;20041;-77
2022/11/03 01:36:07;;;;;;;11.55;2.22;;;10.40;99.90;;;;;;4979389;28;20050;-78
2022/11/03 01:38:34;;;;;;;10.80;2.17;;;10.40;99.90;;;;;;4995550;28;20372;-77
2022/11/03 01:41:01;;;;;;;12.15;2.95;;;10.40;99.90;;;;;;4995315;28;20395;-77
2022/11/03 01:43:30;;;;;;;10.15;2.33;;;10.40;99.90;;;;;;4995209;28;20121;-77
2022/11/03 01:46:02;;;;;;;7.18;2.00;;;10.40;99.90;;;;;;4993809;28;20164;-77
2022/11/03 01:48:29;;;;;;;7.28;1.85;;;10.30;99.90;;;;;;4995912;28;20068;-78
2022/11/03 01:50:54;;;;;;;11.82;2.40;;;10.30;99.90;;;;;;4993988;28;20509;-78
2022/11/03 01:53:21;;;;;;;10.38;2.05;;;10.30;99.90;;;;;;4979577;28;20117;-77
2022/11/03 01:55:49;;;;;;;11.23;2.40;;;10.20;99.90;;;;;;4995280;28;20034;-76
2022/11/03 01:58:26;;;;;;;13.15;2.88;;;10.20;99.90;;;;;;4978068;28;20045;-77
2022/11/03 02:00:57;;;;;;;8.15;1.80;;;10.30;99.90;;;;;;4994545;28;20065;-77
2022/11/03 02:03:24;;;;;;;8.38;2.20;;;10.30;99.90;;;;;;4993940;28;20037;-77
2022/11/03 02:05:51;;;;;;;9.23;2.60;;;10.30;99.90;;;;;;4994587;28;20045;-78
2022/11/03 02:08:22;;;;;;;15.15;2.55;;;10.20;99.90;;;;;;4995278;28;20045;-76
2022/11/03 02:10:49;;;;;;;10.68;2.53;;;10.30;99.90;;;;;;4983909;28;20038;-77
2022/11/03 02:13:19;;;;;;;11.20;1.90;;;10.30;99.90;;;;;;4995097;28;20042;-77
2022/11/03 02:15:48;;;;;;;14.82;4.00;;;10.30;99.90;;;;;;4994091;28;20034;-77
2022/11/03 02:18:16;;;;;;;10.57;2.28;;;10.20;99.90;;;;;;4993696;28;20058;-77
2022/11/03 02:20:45;;;;;;;7.70;1.80;;;10.20;99.90;;;;;;4994337;28;20132;-77
2022/11/03 02:23:20;;;;;;;16.70;2.92;;;10.10;99.90;;;;;;4999402;28;20040;-76
2022/11/03 02:25:57;;;;;;;12.43;1.90;;;10.20;99.90;;;;;;4994961;28;20042;-77
2022/11/03 02:28:28;;;;;;;11.63;2.17;;;10.20;99.90;;;;;;4993157;28;20037;-77
2022/11/03 02:31:05;;;;;;;8.80;2.20;;;10.10;99.90;;;;;;4993617;28;20038;-78
2022/11/03 02:33:50;;;;;;;10.30;2.40;;;10.20;99.90;;;;;;4986037;28;20066;-77
2022/11/03 02:36:27;;;;;;;12.50;2.22;;;10.20;99.90;;;;;;4978002;28;20045;-77
2022/11/03 02:39:05;;;;;;;11.32;2.60;;;10.20;99.90;;;;;;4978616;28;20040;-78
2022/11/03 02:41:34;;;;;;;11.43;2.40;;;10.20;99.90;;;;;;4978506;28;20058;-78
2022/11/03 02:44:00;;;;;;;11.18;2.60;;;10.20;99.90;;;;;;4995146;28;20069;-78
2022/11/03 02:46:29;;;;;;;15.18;2.42;;;10.20;99.90;;;;;;4977489;28;20225;-78
2022/11/03 02:48:56;;;;;;;9.45;2.40;;;10.30;99.90;;;;;;4976571;28;20049;-77
2022/11/03 02:51:23;;;;;;;10.77;2.70;;;10.20;99.90;;;;;;4994242;28;20033;-77
2022/11/03 02:54:18;;;;;;;8.77;2.08;;;10.20;99.90;;;;;;4978644;28;20678;-77
2022/11/03 02:56:56;;;;;;;13.35;2.13;;;10.20;99.90;;;;;;4989420;28;20087;-77
2022/11/03 02:59:29;;;;;;;10.82;2.40;;;10.30;99.90;;;;;;4993785;28;20092;-77
2022/11/03 03:02:05;;;;;;;15.55;2.85;;;10.20;99.90;;;;;;4977688;28;20041;-76
2022/11/03 03:04:35;;;;;;;16.08;2.40;;;10.20;99.90;;;;;;4986823;28;20034;-77
2022/11/03 03:07:14;;;;;;;10.00;2.50;;;10.20;99.90;;;;;;4992910;28;20038;-77
2022/11/03 03:09:56;;;;;;;10.98;2.13;;;10.30;99.90;;;;;;4980340;28;20092;-77
2022/11/03 03:12:23;;;;;;;11.65;2.13;;;10.30;99.90;;;;;;4993122;28;20076;-78
2022/11/03 03:14:50;;;;;;;6.45;2.17;;;10.30;99.90;;;;;;4977152;28;20044;-77
2022/11/03 03:17:28;;;;;;;11.95;2.40;;;10.30;99.90;;;;;;4992166;28;20073;-77
2022/11/03 03:20:02;;;;;;;10.40;2.70;;;10.30;99.90;;;;;;4992626;28;20042;-77
2022/11/03 03:22:38;;;;;;;12.45;3.00;;;10.30;99.90;;;;;;4991440;28;20034;-77
2022/11/03 03:25:28;;;;;;;11.38;2.78;;;10.30;99.90;;;;;;4992312;28;20068;-77
2022/11/03 03:28:14;;;;;;;10.32;2.88;;;10.30;99.90;;;;;;4993352;28;20041;-77
2022/11/03 03:30:42;;;;;;;13.27;2.58;;;10.30;99.90;;;;;;4990794;28;20124;-78
2022/11/03 03:33:08;;;;;;;11.38;2.50;;;10.30;99.90;;;;;;4993802;28;20486;-77
2022/11/03 03:35:37;;;;;;;11.82;2.55;;;10.30;99.90;;;;;;4977956;28;20041;-77
2022/11/03 03:38:07;;;;;;;9.73;2.28;;;10.30;99.90;;;;;;4976920;28;20072;-77
2022/11/03 03:40:37;;;;;;;10.23;2.33;;;10.30;99.90;;;;;;5006695;28;20035;-77
2022/11/03 03:43:05;;;;;;;15.98;2.83;;;10.30;99.90;;;;;;4993324;28;20487;-76
2022/11/03 03:45:33;;;;;;;9.77;2.90;;;10.40;99.90;;;;;;4985250;28;20088;-77
2022/11/03 03:47:58;;;;;;;11.27;2.50;;;10.40;99.90;;;;;;4991567;28;20037;-78
2022/11/03 03:50:27;;;;;;;11.50;2.45;;;10.40;99.90;;;;;;4993027;28;20053;-77
2022/11/03 03:53:08;;;;;;;9.40;2.42;;;10.40;99.90;;;;;;4988195;28;20503;-77
2022/11/03 03:55:47;;;;;;;10.70;2.40;;;10.30;99.90;;;;;;4975429;28;20544;-77
2022/11/03 03:58:13;;;;;;;13.45;2.78;;;10.40;99.90;;;;;;4992540;28;20540;-78
2022/11/03 04:00:40;;;;;;;11.43;2.38;;;10.40;99.90;;;;;;4992838;28;20029;-77
2022/11/03 04:03:12;;;;;;;12.32;2.38;;;10.40;99.90;;;;;;4992172;28;20597;-77
2022/11/03 04:05:37;;;;;;;12.93;2.60;;;10.40;99.90;;;;;;4991499;28;20494;-76
2022/11/03 04:08:03;;;;;;;10.65;2.55;;;10.40;99.90;;;;;;4991624;28;20088;-77
2022/11/03 04:10:29;;;;;;;10.90;2.38;;;10.30;99.90;;;;;;4992939;28;20041;-77
2022/11/03 04:23:45;;;;;;;;;;;10.20;99.90;;;;;;4990496;28;20073;-78
2022/11/03 04:26:13;;;;;;;13.48;2.40;;;10.30;99.90;;;;;;4976817;28;20316;-77
2022/11/03 04:28:40;;;;;;;9.68;2.25;;;10.20;99.90;;;;;;4970543;28;20144;-78
2022/11/03 04:31:10;;;;;;;12.20;2.65;;;10.30;99.90;;;;;;4996036;28;20049;-76
2022/11/03 04:33:35;;;;;;;12.02;2.63;;;10.30;99.90;;;;;;4989740;28;20041;-77
2022/11/03 04:36:24;;;;;;;14.43;2.70;;;10.30;99.90;;;;;;4996606;28;20044;-78
2022/11/03 04:38:51;;;;;;;10.88;2.55;;;10.30;99.90;;;;;;4997404;28;20068;-77
2022/11/03 04:41:23;;;;;;;11.25;2.38;;;10.30;99.90;;;;;;4994736;28;20537;-77
2022/11/03 04:43:50;;;;;;;9.82;2.72;;;10.30;99.90;;;;;;4996918;28;20399;-77
2022/11/03 04:46:22;;;;;;;12.68;2.47;;;10.40;99.90;;;;;;4995501;28;20077;-77
2022/11/03 04:48:48;;;;;;;6.53;1.92;;;10.40;99.90;;;;;;4980682;28;20041;-77
2022/11/03 04:51:21;;;;;;;11.73;2.35;;;10.30;99.90;;;;;;4995154;28;20515;-76
2022/11/03 04:53:51;;;;;;;14.52;2.65;;;10.30;99.90;;;;;;4994976;28;20049;-77
2022/11/03 04:56:20;;;;;;;11.82;2.50;;;10.30;99.90;;;;;;4994408;28;20128;-77
2022/11/03 04:58:47;;;;;;;8.85;2.40;;;10.30;99.90;;;;;;4999690;28;20048;-76
2022/11/03 05:01:14;;;;;;;13.32;2.55;;;10.30;99.90;;;;;;4994413;28;20053;-80
2022/11/03 05:03:42;;;;;;;11.25;2.50;;;10.30;99.90;;;;;;4996757;28;20037;-77
2022/11/03 05:06:14;;;;;;;11.10;2.25;;;10.30;99.90;;;;;;4995507;28;20522;-77
2022/11/03 05:08:41;;;;;;;12.25;2.85;;;10.30;99.90;;;;;;4996022;28;20395;-78
2022/11/03 05:11:29;;;;;;;10.40;2.30;;;10.30;99.90;;;;;;4979163;28;20038;-78
2022/11/03 05:14:01;;;;;;;10.18;2.63;;;10.30;99.90;;;;;;4992166;28;20570;-77
2022/11/03 05:16:27;;;;;;;10.80;2.45;;;10.30;99.90;;;;;;4994476;28;20490;-77
2022/11/03 05:18:53;;;;;;;7.18;1.90;;;10.30;99.90;;;;;;4978738;28;20518;-77
2022/11/03 05:21:21;;;;;;;10.88;2.17;;;10.30;99.90;;;;;;4995192;28;20117;-77
2022/11/03 05:23:53;;;;;;;11.57;2.50;;;10.30;99.90;;;;;;4992816;28;20064;-78
2022/11/03 05:26:24;;;;;;;8.13;2.47;;;10.20;99.90;;;;;;4990333;28;20034;-77
2022/11/03 05:28:53;;;;;;;11.73;2.53;;;10.30;99.90;;;;;;4993878;28;20665;-77
2022/11/03 05:31:28;;;;;;;7.95;2.00;;;10.30;99.90;;;;;;4994179;28;20121;-78
2022/11/03 05:34:00;;;;;;;9.25;2.40;;;10.30;99.90;;;;;;4994583;28;20057;-77
2022/11/03 05:36:29;;;;;;;9.57;2.67;;;10.30;99.90;;;;;;4995365;28;20161;-78
2022/11/03 05:39:04;;;;;;;9.50;2.25;;;10.30;99.90;;;;;;4996265;28;20119;-77
2022/11/03 05:41:29;;;;;;;9.50;2.50;;;10.30;99.90;;;;;;4974448;28;20061;-77
2022/11/03 05:44:01;;;;;;;13.82;2.95;;;10.30;99.90;;;;;;4995727;28;20458;-77
2022/11/03 05:46:31;;;;;;;11.68;2.13;;;10.30;99.90;;;;;;4993336;28;20057;-77
2022/11/03 05:49:00;;;;;;;7.53;2.40;;;10.30;99.90;;;;;;4993070;28;20034;-77
2022/11/03 05:51:31;;;;;;;10.35;2.40;;;10.30;99.90;;;;;;4993927;28;20140;-76
2022/11/03 05:54:01;;;;;;;9.70;2.55;;;10.30;99.90;;;;;;4976771;28;20061;-78
2022/11/03 05:56:27;;;;;;;9.82;2.38;;;10.30;99.90;;;;;;4993991;28;20095;-77
2022/11/03 05:58:56;;;;;;;11.20;2.20;;;10.30;99.90;;;;;;4993223;28;20082;-77
2022/11/03 06:01:41;;;;;;;10.82;2.47;;;10.30;99.90;;;;;;4992097;28;20034;-78
2022/11/03 06:04:19;;;;;;;10.20;2.60;;;10.30;99.90;;;;;;4988879;28;20422;-77
2022/11/03 06:06:50;;;;;;;9.50;2.28;;;10.30;99.90;;;;;;4993569;28;20042;-77
2022/11/03 06:09:20;;;;;;;13.50;2.67;;;10.30;99.90;;;;;;4998677;28;20103;-78
2022/11/03 06:11:46;;;;;;;10.55;2.45;;;10.30;99.90;;;;;;4995367;28;20054;-77
2022/11/03 06:14:17;;;;;;;13.15;2.53;;;10.30;99.90;;;;;;4991354;28;20038;-78
2022/11/03 06:16:46;;;;;;;9.85;2.53;;;10.30;99.90;;;;;;4996960;28;20065;-77
2022/11/03 06:19:24;;;;;;;8.13;2.13;;;10.30;99.90;;;;;;4993547;28;20052;-77
2022/11/03 06:21:51;;;;;;;6.90;1.95;;;10.30;99.90;;;;;;4975453;28;20041;-76
2022/11/03 06:24:20;;;;;;;11.35;2.38;;;10.20;99.90;;;;;;4994297;28;20038;-78
2022/11/03 06:26:46;;;;;;;10.77;2.47;;;10.20;99.90;;;;;;4993752;28;20046;-77
2022/11/03 06:29:16;;;;;;;9.77;2.20;;;10.20;99.90;;;;;;4994976;28;20365;-77
2022/11/03 06:31:46;;;;;;;14.13;2.67;;;10.20;99.90;;;;;;4979482;28;20038;-77
2022/11/03 06:34:30;;;;;;;12.30;2.40;;;10.20;99.90;;;;;;4994241;28;20034;-76
2022/11/03 06:36:57;;;;;;;;;;;10.20;99.90;;;;;;4995324;28;20042;-77
2022/11/03 06:39:23;;;;;;;11.07;2.42;;;10.20;99.90;;;;;;4993821;28;19918;-77
2022/11/03 06:41:49;;;;;;;8.70;2.63;;;10.20;99.90;;;;;;4978883;28;20034;-77
2022/11/03 06:44:27;;;;;;;7.68;2.45;;;10.20;99.90;;;;;;4994153;28;20497;-78
2022/11/03 06:47:00;;;;;;;8.32;2.53;;;10.20;99.90;;;;;;4995187;28;20046;-77
2022/11/03 06:49:31;;;;;;;6.90;2.30;;;10.20;99.90;;;;;;4993305;28;20168;-77
2022/11/03 06:52:27;;;;;;;6.60;2.13;;;10.20;99.90;;;;;;4995110;28;20317;-77
2022/11/03 06:55:18;;;;;;;9.23;2.38;;;10.20;99.90;;;;;;4990347;28;20487;-77
2022/11/03 06:57:47;;;;;;;10.07;2.42;;;10.20;99.90;;;;;;4990007;28;20459;-77
2022/11/03 07:00:28;;;;;;;9.27;2.22;;;10.20;99.90;;;;;;4993095;28;20060;-77
2022/11/03 07:03:09;;;;;;;8.73;2.72;;;10.20;99.90;;;;;;4993550;28;20042;-77
2022/11/03 07:05:35;;;;;;;11.88;2.17;;;10.30;99.90;;;;;;5004827;28;20065;-77
2022/11/03 07:08:09;;;;;;;8.45;2.30;;;10.30;99.90;;;;;;4994036;28;20038;-77
2022/11/03 07:10:35;;;;;;;8.18;2.10;;;10.30;99.90;;;;;;4994482;28;20065;-77
2022/11/03 07:13:09;;;;;;;9.05;2.17;;;10.30;99.90;;;;;;4994485;28;20073;-77
2022/11/03 07:15:38;;;;;;;9.27;2.45;;;10.40;99.90;;;;;;4994604;28;20046;-76
2022/11/03 07:18:19;;;;;;;11.25;2.70;;;10.40;99.90;;;;;;4992943;28;20034;-76
2022/11/03 07:20:45;;;;;;;9.73;2.40;;;10.40;99.90;;;;;;4987192;28;20041;-76
2022/11/03 07:23:18;;;;;;;14.77;2.65;;;10.40;99.90;;;;;;4975488;28;20033;-77
2022/11/03 07:25:47;;;;;;;10.60;2.38;;;10.40;99.90;;;;;;4989127;28;20117;-76
2022/11/03 07:28:14;;;;;;;11.35;2.60;;;10.50;99.90;;;;;;4990771;28;20150;-76
2022/11/03 07:30:39;;;;;;;15.00;2.80;;;10.50;99.90;;;;;;4978264;28;20045;-77
2022/11/03 07:33:15;;;;;;;11.23;2.88;;;10.60;99.90;;;;;;4992742;28;20045;-77
2022/11/03 07:35:43;;;;;;;9.52;2.20;;;10.60;99.90;;;;;;4992676;28;20078;-77
2022/11/03 07:38:12;;;;;;;10.85;2.67;;;10.70;99.90;;;;;;4991596;28;20092;-77
2022/11/03 07:40:38;;;;;;;9.32;2.28;;;10.60;99.90;;;;;;4977602;28;20030;-77
2022/11/03 07:43:26;;;;;;;13.15;2.80;;;10.70;99.90;;;;;;4994393;28;20033;-76
2022/11/03 07:45:53;;;;;;;7.93;2.30;;;10.70;99.90;;;;;;4994164;28;20113;-78
2022/11/03 07:48:27;;;;;;;7.55;2.30;;;10.80;99.90;;;;;;4992584;28;20446;-77
2022/11/03 07:50:58;;;;;;;;;;;10.80;99.90;;;;;;4991836;28;20044;-77
2022/11/03 07:53:40;;;;;;;9.38;2.72;;;10.90;99.90;;;;;;4993300;28;19921;-76
2022/11/03 07:56:22;;;;;;;9.45;2.78;;;10.90;99.90;;;;;;4976537;28;20495;-77
2022/11/03 07:58:58;;;;;;;9.05;2.80;;;11.00;99.90;;;;;;4990789;28;20037;-77
2022/11/03 08:01:54;;;;;;;10.82;2.90;;;11.00;99.90;;;;;;4990443;28;20088;-77
2022/11/03 08:04:22;;;;;;;11.63;2.83;;;11.10;99.90;;;;;;4983633;28;20057;-76
2022/11/03 08:06:47;;;;;;;10.00;2.30;;;11.10;99.90;;;;;;4991804;28;20045;-77
2022/11/03 08:09:13;;;;;;;11.13;3.00;;;11.20;99.90;;;;;;4971627;28;20042;-78
2022/11/03 08:11:39;;;;;;;7.82;2.83;;;11.30;99.90;;;;;;4990761;28;20096;-76
2022/11/03 08:14:04;;;;;;;7.70;2.70;;;11.30;99.90;;;;;;4990220;28;20060;-77
2022/11/03 08:16:30;;;;;;;12.77;3.08;;;11.30;99.90;;;;;;4992511;28;20042;-77
2022/11/03 08:18:55;;;;;;;9.30;2.33;;;11.40;99.90;;;;;;4993480;28;20407;-77
2022/11/03 08:21:21;;;;;;;9.65;2.47;;;11.50;99.90;;;;;;4993746;28;20034;-77
2022/11/03 08:23:47;;;;;;;6.78;2.75;;;11.50;99.90;;;;;;4975636;28;20030;-77
2022/11/03 08:26:12;;;;;;;12.43;2.70;;;11.60;99.90;;;;;;4990204;28;20041;-77
2022/11/03 08:28:38;;;;;;;9.98;3.05;;;11.70;99.90;;;;;;4993254;28;20108;-77
2022/11/03 08:31:04;;;;;;;6.45;2.28;;;11.70;99.90;;;;;;4992588;28;20487;-78
2022/11/03 08:33:34;;;;;;;10.30;2.65;;;11.80;99.90;;;;;;4989883;28;20040;-76
2022/11/03 08:36:01;;;;;;;10.50;2.50;;;11.90;99.90;;;;;;4988342;28;20076;-77
2022/11/03 08:38:26;;;;;;;10.23;2.75;;;12.00;99.90;;;;;;4992802;28;20156;-77
2022/11/03 08:40:53;;;;;;;9.13;3.08;;;12.10;99.90;;;;;;4992550;28;20025;-78
2022/11/03 08:43:18;;;;;;;8.65;2.33;;;12.10;99.90;;;;;;4993181;28;20061;-76
2022/11/03 08:45:44;;;;;;;9.68;2.80;;;12.20;99.90;;;;;;4992596;28;20495;-79
2022/11/03 08:48:10;;;;;;;17.33;3.65;;;12.20;99.90;;;;;;4992301;28;20053;-77
2022/11/03 08:50:36;;;;;;;9.43;2.42;;;12.20;99.90;;;;;;4977269;28;20188;-78
2022/11/03 08:53:02;;;;;;;10.95;2.70;;;12.30;99.90;;;;;;4992177;28;20124;-78
2022/11/03 08:55:27;;;;;;;10.55;2.80;;;12.30;99.90;;;;;;4992235;28;20089;-77
2022/11/03 08:57:53;;;;;;;11.07;3.03;;;12.30;99.90;;;;;;4975670;28;20176;-77
2022/11/03 09:00:19;;;;;;;9.57;2.58;;;12.30;99.90;;;;;;4992338;28;20046;-79
2022/11/03 09:02:44;;;;;;;8.90;2.38;;;12.30;99.90;;;;;;4991898;28;20034;-77
2022/11/03 09:05:11;;;;;;;10.15;2.85;;;12.30;99.90;;;;;;4977099;28;20042;-78
2022/11/03 09:07:38;;;;;;;11.55;2.75;;;12.30;99.90;;;;;;4991765;28;20094;-77
2022/11/03 09:10:08;;;;;;;9.38;2.42;;;12.40;99.90;;;;;;4993087;28;20113;-77
2022/11/03 09:12:35;;;;;;;8.90;2.88;;;12.40;99.90;;;;;;4993476;28;20038;-76
2022/11/03 09:15:00;;;;;;;10.77;2.58;;;12.40;99.90;;;;;;4991820;28;20149;-77
2022/11/03 09:17:26;;;;;;;10.13;2.83;;;12.40;99.90;;;;;;4996236;28;20054;-77
2022/11/03 09:19:51;;;;;;;12.82;2.63;;;12.50;99.90;;;;;;4995713;28;20388;-77
2022/11/03 09:22:17;;;;;;;12.55;2.75;;;12.50;99.90;;;;;;4992988;28;20507;-78
2022/11/03 09:24:43;;;;;;;11.75;3.03;;;12.50;99.90;;;;;;4994373;28;20100;-77
2022/11/03 09:27:08;;;;;;;13.02;3.22;;;12.60;99.90;;;;;;4995390;28;20044;-77
2022/11/03 09:29:34;;;;;;;9.82;3.10;;;12.60;99.90;;;;;;4992607;28;20045;-77
2022/11/03 09:31:59;;;;;;;9.88;2.40;;;12.70;99.90;;;;;;4978517;28;20518;-77
2022/11/03 09:34:25;;;;;;;12.30;3.25;;;12.70;99.90;;;;;;4992764;28;20045;-77
2022/11/03 09:36:50;;;;;;;11.43;2.60;;;12.70;99.90;;;;;;4994168;28;20042;-78
2022/11/03 09:39:16;;;;;;;8.43;2.40;;;12.80;99.90;;;;;;4990723;28;20041;-78
2022/11/03 09:41:42;;;;;;;10.60;2.40;;;12.90;99.90;;;;;;4996172;28;20135;-78
2022/11/03 09:44:09;;;;;;;10.05;2.92;;;12.90;99.90;;;;;;4992419;28;20129;-77
2022/11/03 09:46:34;;;;;;;10.80;2.92;;;13.00;99.90;;;;;;4994148;28;20044;-78
2022/11/03 09:49:02;;;;;;;9.68;2.45;;;13.00;99.90;;;;;;4991958;28;20041;-76
2022/11/03 09:51:28;;;;;;;14.48;2.75;;;13.10;99.90;;;;;;4995836;28;20116;-78
2022/11/03 09:53:56;;;;;;;10.43;2.75;;;13.10;99.90;;;;;;4996321;28;20577;-77
2022/11/03 09:56:24;;;;;;;9.75;2.40;;;13.20;99.90;;;;;;4994254;28;20534;-77
2022/11/03 09:58:50;;;;;;;10.52;2.80;;;13.30;99.90;;;;;;4988091;28;20042;-77
2022/11/03 10:01:16;;;;;;;5.53;2.35;;;13.30;99.90;;;;;;4994985;28;20037;-77
2022/11/03 10:03:41;;;;;;;12.35;2.92;;;13.40;99.90;;;;;;4993219;28;20518;-78
2022/11/03 10:06:07;;;;;;;10.90;3.08;;;13.50;99.90;;;;;;4994713;28;20038;-78
2022/11/03 10:08:35;;;;;;;9.15;2.72;;;13.60;99.90;;;;;;4995080;28;20459;-78
2022/11/03 10:11:02;;;;;;;13.77;3.20;;;13.60;99.90;;;;;;4995400;28;20096;-77
2022/11/03 10:13:34;;;;;;;7.68;2.22;;;13.70;99.90;;;;;;4995529;28;20133;-78
2022/11/03 10:16:04;;;;;;;12.50;3.37;;;13.70;99.90;;;;;;4995574;28;20042;-77
2022/11/03 10:18:30;;;;;;;8.82;2.60;;;13.80;99.90;;;;;;4978425;28;20037;-78
2022/11/03 10:20:59;;;;;;;9.48;2.55;;;13.80;99.90;;;;;;4994737;28;20077;-77
2022/11/03 10:23:24;;;;;;;8.27;2.33;;;13.80;99.90;;;;;;4993685;28;20508;-78
2022/11/03 10:25:50;;;;;;;9.05;2.65;;;13.90;99.90;;;;;;4992807;28;20082;-78
2022/11/03 10:28:25;;;;;;;13.50;2.42;;;13.80;99.90;;;;;;4991734;28;20033;-79
2022/11/03 10:30:51;;;;;;;12.55;2.70;;;13.90;99.90;;;;;;4991564;28;20045;-77
2022/11/03 10:33:37;;;;;;;10.32;2.65;;;13.90;99.90;;;;;;4993202;28;20037;-77
2022/11/03 10:36:23;;;;;;;11.52;2.47;;;13.90;99.90;;;;;;4993187;28;20041;-77
2022/11/03 10:38:48;;;;;;;9.23;2.47;;;13.90;99.90;;;;;;4993206;28;20052;-77
2022/11/03 10:41:16;;;;;;;9.20;3.05;;;14.00;99.90;;;;;;4995177;28;20423;-78
2022/11/03 10:43:44;;;;;;;9.25;2.80;;;14.00;99.90;;;;;;4994311;28;20137;-78
2022/11/03 10:46:19;;;;;;;8.20;2.70;;;14.10;99.90;;;;;;4991505;28;20120;-76
2022/11/03 10:49:02;;;;;;;14.55;2.95;;;14.30;99.90;;;;;;4994556;28;20042;-78
2022/11/03 10:51:28;;;;;;;9.48;2.55;;;14.40;99.90;;;;;;4995000;28;20038;-77
2022/11/03 10:53:54;;;;;;;9.75;2.53;;;14.50;99.90;;;;;;4976839;28;20064;-78
2022/11/03 10:56:20;;;;;;;13.07;3.42;;;14.50;99.90;;;;;;4990566;28;20121;-78
2022/11/03 10:58:45;;;;;;;7.82;2.60;;;14.60;99.90;;;;;;4981007;28;20117;-77
2022/11/03 11:01:11;;;;;;;8.35;2.60;;;14.60;99.90;;;;;;4994911;28;20457;-78
2022/11/03 11:03:41;;;;;;;8.35;2.65;;;14.70;99.90;;;;;;4992864;28;20041;-78
2022/11/03 11:06:39;;;;;;;9.27;2.13;;;14.70;99.90;;;;;;4993556;28;20399;-78
2022/11/03 11:09:08;;;;;;;9.15;2.63;;;14.70;99.90;;;;;;4982470;28;20046;-79
2022/11/03 11:11:34;;;;;;;7.70;2.20;;;14.80;99.90;;;;;;4978417;28;20038;-77
2022/11/03 11:14:33;;;;;;;9.95;2.72;;;15.00;99.90;;;;;;4994633;28;20113;-77
2022/11/03 11:17:00;;;;;;;11.10;2.20;;;15.10;99.90;;;;;;4978449;28;20422;-78
2022/11/03 11:19:28;;;;;;;7.28;2.40;;;15.20;99.90;;;;;;4993111;28;20037;-77
2022/11/03 11:21:53;;;;;;;6.95;2.20;;;15.20;99.90;;;;;;4972960;28;20038;-78
2022/11/03 11:24:44;;;;;;;7.57;2.40;;;15.30;99.90;;;;;;4993283;28;20084;-79
2022/11/03 11:27:30;;;;;;;8.45;2.20;;;15.30;99.90;;;;;;4991000;28;20075;-79
2022/11/03 11:29:57;;;;;;;8.30;2.00;;;15.30;99.90;;;;;;4994354;28;20100;-77
2022/11/03 11:32:40;;;;;;;7.45;2.30;;;15.40;99.90;;;;;;4992947;28;20037;-78
2022/11/03 11:35:30;;;;;;;7.28;1.98;;;15.40;99.90;;;;;;4977902;28;20136;-78
2022/11/03 11:38:34;;;;;;;7.45;2.28;;;15.40;99.90;;;;;;4971492;28;20054;-78
2022/11/03 11:41:00;;;;;;;9.40;2.00;;;15.40;99.90;;;;;;4992337;28;20064;-79
2022/11/03 11:43:26;;;;;;;9.57;1.98;;;15.40;99.90;;;;;;4992050;28;20503;-79
2022/11/03 11:46:23;;;;;;;10.63;2.35;;;15.30;99.90;;;;;;4994027;28;20049;-78
2022/11/03 11:49:08;;;;;;;7.18;2.53;;;15.30;99.90;;;;;;5003460;28;20064;-78
2022/11/03 11:51:36;;;;;;;6.93;2.08;;;15.30;99.90;;;;;;4973535;28;20050;-78
2022/11/03 11:54:07;;;;;;;8.57;1.98;;;15.30;99.90;;;;;;4993831;28;20030;-77
2022/11/03 11:56:32;;;;;;;11.48;2.17;;;15.20;99.90;;;;;;4994184;28;20050;-78
2022/11/03 11:58:59;;;;;;;13.10;2.33;;;15.30;99.90;;;;;;4994003;28;20052;-78
2022/11/03 12:01:29;;;;;;;6.70;2.20;;;15.30;99.90;;;;;;4991598;28;20049;-77
2022/11/03 12:03:58;;;;;;;7.78;2.05;;;15.20;99.90;;;;;;4981402;28;20030;-77
2022/11/03 12:06:34;;;;;;;7.60;2.10;;;15.30;99.90;;;;;;4991068;28;20034;-78
2022/11/03 12:09:20;;;;;;;10.15;2.28;;;15.30;99.90;;;;;;4988542;28;20041;-77
2022/11/03 12:11:52;;;;;;;12.82;3.15;;;15.30;99.90;;;;;;4989657;28;20042;-77
2022/11/03 12:14:34;;;;;;;9.85;2.05;;;15.30;99.90;;;;;;4991833;28;20041;-77
2022/11/03 12:17:18;;;;;;;9.63;2.40;;;15.30;99.90;;;;;;4990857;28;20495;-77
2022/11/03 12:19:47;;;;;;;7.22;1.98;;;15.30;99.90;;;;;;4983089;28;20416;-78
2022/11/03 12:22:22;;;;;;;9.63;2.28;;;15.20;99.90;;;;;;4992351;28;20049;-77
2022/11/03 12:24:54;;;;;;;5.88;1.73;;;15.20;99.90;;;;;;4993569;28;20096;-77
2022/11/03 12:27:23;;;;;;;11.23;2.45;;;15.20;99.90;;;;;;4989659;28;20044;-77
2022/11/03 12:29:49;;;;;;;7.05;2.20;;;15.20;99.90;;;;;;4979739;28;20043;-77
2022/11/03 12:32:15;;;;;;;7.25;2.17;;;15.20;99.90;;;;;;4994184;28;20037;-78
2022/11/03 12:34:41;;;;;;;7.45;2.53;;;15.10;99.90;;;;;;4991637;28;20099;-77
2022/11/03 12:37:07;;;;;;;6.10;1.90;;;15.10;99.90;;;;;;4992369;28;20041;-77
2022/11/03 12:39:33;;;;;;;8.48;1.83;;;15.10;99.90;;;;;;4991257;28;20514;-78
2022/11/03 12:41:59;;;;;;;6.18;1.80;;;15.10;99.90;;;;;;4991814;28;20116;-77
2022/11/03 12:44:24;;;;;;;8.60;2.20;;;15.10;99.90;;;;;;4992694;28;20145;-77
2022/11/03 12:46:50;;;;;;;11.30;2.10;;;15.10;99.90;;;;;;4990599;28;20038;-78
2022/11/03 12:49:15;;;;;;;7.88;1.85;;;15.00;99.90;;;;;;4988653;28;20495;-77
2022/11/03 12:51:41;;;;;;;5.30;1.70;;;15.10;99.90;;;;;;4995623;28;20494;-77
2022/11/03 12:54:06;;;;;;;6.45;2.00;;;15.10;99.90;;;;;;4996886;28;20093;-77
2022/11/03 12:56:32;;;;;;;8.70;1.83;;;15.10;99.90;;;;;;4997042;28;20411;-77
2022/11/03 12:58:57;;;;;;;7.00;1.85;;;15.10;99.90;;;;;;4996992;28;20434;-76
2022/11/03 13:01:23;;;;;;;8.48;2.05;;;15.20;99.90;;;;;;4988687;28;20038;-78
2022/11/03 13:03:48;;;;;;;9.90;2.10;;;15.20;99.90;;;;;;4989178;28;20034;-77
2022/11/03 13:06:14;;;;;;;6.28;1.90;;;15.20;99.90;;;;;;4997186;28;20065;-78
2022/11/03 13:08:40;;;;;;;7.40;2.00;;;15.30;99.90;;;;;;4996924;28;20038;-77
2022/11/03 13:12:29;;;;;;;8.55;2.28;;;15.30;99.90;;;;;;4996846;28;20033;-79
2022/11/03 13:13:52;;;;;;;5.82;2.08;;;15.40;99.90;;;;;;4996658;28;20135;-79
2022/11/03 13:16:17;;;;;;;6.68;1.95;;;15.40;99.90;;;;;;4996738;28;20511;-77